Pagina principale
METAR-TAF:

METAR-TAF

Aeroporti :

Aeroporto di Palma di Maiorca

Palma di Maiorca, Spagna

latitudine: 39-33N, longitudine: 002-44E, altezza: 4 m

Osservazione

Il bollettino è stato emesso 20 minuti fa, alle 03:30 UTC
Vento 2 kt da ovest/nord-ovest
Temperature 12°C
Umidità 100%
Pressione 1023 hPa
Visibilità 10 km o più
Poco nuvoloso ad un'altezza di 2200 ft

METAR: LEPA 230330Z 29002KT 9999 FEW022 12/12 Q1023 NOSIG

Ora: 05:50 (03:50 UTC)

Previsione

Il bollettino è stato emesso 4 ore e 50 minuti fa, alle 23:00 UTC
Previsione valida dal 23 alle 00 UTC al 23 alle 24 UTC
Vento 4 kt da nord/nord-est
Visibilità 10 km o più
Poco nuvoloso ad un'altezza di 2500 ft
Evoluzione graduale
dal 23 alle 09 UTC al 23 alle 11 UTC
Vento 10 kt da nord
Evoluzione graduale
dal 23 alle 15 UTC al 23 alle 17 UTC
Vento 3 kt da direzioni variabili

TAF: LEPA 222300Z 2300/2324 03004KT 9999 FEW025 TX23/2312Z TN12/2306Z BECMG 2309/2311 01010KT BECMG 2315/2317 VRB03KT

Osservazioni e previsioni meteorologiche di più di 4000 aeroporti (messaggi METAR e TAF).

Le stazioni disponibili sono rappresentate dai dischi gialli e rossi sulla carta.

Puntare il mouse per vedere il nome della stazione.

Clicca sopra per visualizzare le osservazioni e previsioni meteorologiche.

Per cambiare la mappa : fare clic sui pulsanti verdi con una croce nera per ingrandire, il pulsante verde con un trattino per diminuire, o sulla freccia verde per le mappe adiacenti.


METAR-TAF: